sensor_id;sensor_type;location;lat;lon;timestamp;P1;durP1;ratioP1;P2;durP2;ratioP2
4921;SDS011;16625;53.624;10.106;2022-12-18T00:02:12;23.97;;;11.10;;
4921;SDS011;16625;53.624;10.106;2022-12-18T00:04:40;21.33;;;11.60;;
4921;SDS011;16625;53.624;10.106;2022-12-18T00:07:07;15.27;;;10.67;;
4921;SDS011;16625;53.624;10.106;2022-12-18T00:09:34;25.80;;;9.93;;
4921;SDS011;16625;53.624;10.106;2022-12-18T00:12:01;16.67;;;10.33;;
4921;SDS011;16625;53.624;10.106;2022-12-18T00:14:28;17.67;;;10.93;;
4921;SDS011;16625;53.624;10.106;2022-12-18T00:16:54;18.90;;;9.90;;
4921;SDS011;16625;53.624;10.106;2022-12-18T00:19:23;15.37;;;10.10;;
4921;SDS011;16625;53.624;10.106;2022-12-18T00:21:51;15.17;;;10.60;;
4921;SDS011;16625;53.624;10.106;2022-12-18T00:24:18;17.20;;;11.40;;
4921;SDS011;16625;53.624;10.106;2022-12-18T00:26:45;17.93;;;9.60;;
4921;SDS011;16625;53.624;10.106;2022-12-18T00:29:12;24.87;;;10.00;;
4921;SDS011;16625;53.624;10.106;2022-12-18T00:31:41;19.33;;;11.17;;
4921;SDS011;16625;53.624;10.106;2022-12-18T00:34:09;9.80;;;7.70;;
4921;SDS011;16625;53.624;10.106;2022-12-18T00:36:37;15.40;;;8.73;;
4921;SDS011;16625;53.624;10.106;2022-12-18T00:39:05;16.10;;;9.13;;
4921;SDS011;16625;53.624;10.106;2022-12-18T00:41:32;30.87;;;11.60;;
4921;SDS011;16625;53.624;10.106;2022-12-18T00:44:17;20.13;;;10.20;;
4921;SDS011;16625;53.624;10.106;2022-12-18T00:46:45;19.90;;;10.03;;
4921;SDS011;16625;53.624;10.106;2022-12-18T00:49:15;16.00;;;10.30;;
4921;SDS011;16625;53.624;10.106;2022-12-18T00:51:43;27.20;;;9.50;;
4921;SDS011;16625;53.624;10.106;2022-12-18T00:54:11;21.13;;;10.67;;
4921;SDS011;16625;53.624;10.106;2022-12-18T00:56:38;16.03;;;9.10;;
4921;SDS011;16625;53.624;10.106;2022-12-18T00:59:05;13.90;;;8.70;;
4921;SDS011;16625;53.624;10.106;2022-12-18T01:01:32;18.20;;;9.10;;
4921;SDS011;16625;53.624;10.106;2022-12-18T01:03:59;16.10;;;9.93;;
4921;SDS011;16625;53.624;10.106;2022-12-18T01:06:28;17.77;;;9.40;;
4921;SDS011;16625;53.624;10.106;2022-12-18T01:08:55;18.97;;;8.50;;
4921;SDS011;16625;53.624;10.106;2022-12-18T01:11:23;23.67;;;9.03;;
4921;SDS011;16625;53.624;10.106;2022-12-18T01:13:51;12.40;;;8.47;;
4921;SDS011;16625;53.624;10.106;2022-12-18T01:16:19;26.47;;;11.53;;
4921;SDS011;16625;53.624;10.106;2022-12-18T01:18:46;17.33;;;12.00;;
4921;SDS011;16625;53.624;10.106;2022-12-18T01:21:13;17.47;;;10.40;;
4921;SDS011;16625;53.624;10.106;2022-12-18T01:23:41;17.63;;;8.33;;
4921;SDS011;16625;53.624;10.106;2022-12-18T01:26:09;12.77;;;8.33;;
4921;SDS011;16625;53.624;10.106;2022-12-18T01:28:38;18.60;;;10.10;;
4921;SDS011;16625;53.624;10.106;2022-12-18T01:31:09;14.90;;;7.90;;
4921;SDS011;16625;53.624;10.106;2022-12-18T01:33:41;12.17;;;9.13;;
4921;SDS011;16625;53.624;10.106;2022-12-18T01:36:11;17.87;;;10.77;;
4921;SDS011;16625;53.624;10.106;2022-12-18T01:38:41;12.53;;;8.73;;
4921;SDS011;16625;53.624;10.106;2022-12-18T01:41:08;17.53;;;10.60;;
4921;SDS011;16625;53.624;10.106;2022-12-18T01:43:47;15.57;;;8.70;;
4921;SDS011;16625;53.624;10.106;2022-12-18T01:46:15;18.00;;;9.70;;
4921;SDS011;16625;53.624;10.106;2022-12-18T01:48:43;16.50;;;10.23;;
4921;SDS011;16625;53.624;10.106;2022-12-18T01:51:12;10.97;;;7.17;;
4921;SDS011;16625;53.624;10.106;2022-12-18T01:53:40;13.60;;;10.13;;
4921;SDS011;16625;53.624;10.106;2022-12-18T01:56:08;15.00;;;9.40;;
4921;SDS011;16625;53.624;10.106;2022-12-18T01:58:41;17.23;;;8.97;;
4921;SDS011;16625;53.624;10.106;2022-12-18T02:01:16;12.87;;;7.87;;
4921;SDS011;16625;53.624;10.106;2022-12-18T02:03:44;18.17;;;8.20;;
4921;SDS011;16625;53.624;10.106;2022-12-18T02:06:13;15.57;;;9.23;;
4921;SDS011;16625;53.624;10.106;2022-12-18T02:08:45;13.87;;;8.20;;
4921;SDS011;16625;53.624;10.106;2022-12-18T02:11:23;17.57;;;9.43;;
4921;SDS011;16625;53.624;10.106;2022-12-18T02:14:00;10.77;;;7.80;;
4921;SDS011;16625;53.624;10.106;2022-12-18T02:16:34;14.70;;;8.30;;
4921;SDS011;16625;53.624;10.106;2022-12-18T02:19:10;19.23;;;9.43;;
4921;SDS011;16625;53.624;10.106;2022-12-18T02:21:48;13.73;;;8.53;;
4921;SDS011;16625;53.624;10.106;2022-12-18T02:24:24;26.83;;;10.10;;
4921;SDS011;16625;53.624;10.106;2022-12-18T02:26:58;12.10;;;7.90;;
4921;SDS011;16625;53.624;10.106;2022-12-18T02:29:28;15.83;;;8.63;;
4921;SDS011;16625;53.624;10.106;2022-12-18T02:31:58;13.07;;;8.67;;
4921;SDS011;16625;53.624;10.106;2022-12-18T02:34:26;15.03;;;8.33;;
4921;SDS011;16625;53.624;10.106;2022-12-18T02:36:57;15.20;;;8.40;;
4921;SDS011;16625;53.624;10.106;2022-12-18T02:39:26;19.43;;;10.97;;
4921;SDS011;16625;53.624;10.106;2022-12-18T02:41:55;13.23;;;8.30;;
4921;SDS011;16625;53.624;10.106;2022-12-18T02:44:27;22.40;;;9.03;;
4921;SDS011;16625;53.624;10.106;2022-12-18T02:46:54;18.90;;;10.10;;
4921;SDS011;16625;53.624;10.106;2022-12-18T02:49:24;11.10;;;7.47;;
4921;SDS011;16625;53.624;10.106;2022-12-18T02:52:01;16.53;;;8.97;;
4921;SDS011;16625;53.624;10.106;2022-12-18T02:54:36;12.30;;;8.57;;
4921;SDS011;16625;53.624;10.106;2022-12-18T02:57:15;19.07;;;8.17;;
4921;SDS011;16625;53.624;10.106;2022-12-18T02:59:50;12.67;;;7.67;;
4921;SDS011;16625;53.624;10.106;2022-12-18T03:02:23;11.80;;;7.13;;
4921;SDS011;16625;53.624;10.106;2022-12-18T03:04:55;14.17;;;9.20;;
4921;SDS011;16625;53.624;10.106;2022-12-18T03:07:26;15.63;;;7.50;;
4921;SDS011;16625;53.624;10.106;2022-12-18T03:09:59;11.93;;;8.20;;
4921;SDS011;16625;53.624;10.106;2022-12-18T03:12:30;20.87;;;8.77;;
4921;SDS011;16625;53.624;10.106;2022-12-18T03:15:01;8.03;;;6.47;;
4921;SDS011;16625;53.624;10.106;2022-12-18T03:17:33;14.50;;;7.97;;
4921;SDS011;16625;53.624;10.106;2022-12-18T03:20:03;11.03;;;7.47;;
4921;SDS011;16625;53.624;10.106;2022-12-18T03:22:33;12.67;;;6.90;;
4921;SDS011;16625;53.624;10.106;2022-12-18T03:25:04;14.43;;;7.73;;
4921;SDS011;16625;53.624;10.106;2022-12-18T03:27:37;15.20;;;8.00;;
4921;SDS011;16625;53.624;10.106;2022-12-18T03:30:10;11.83;;;8.00;;
4921;SDS011;16625;53.624;10.106;2022-12-18T03:32:42;19.77;;;7.40;;
4921;SDS011;16625;53.624;10.106;2022-12-18T03:35:14;17.70;;;9.27;;
4921;SDS011;16625;53.624;10.106;2022-12-18T03:37:46;11.93;;;7.53;;
4921;SDS011;16625;53.624;10.106;2022-12-18T03:40:13;13.20;;;7.87;;
4921;SDS011;16625;53.624;10.106;2022-12-18T03:42:43;13.10;;;7.80;;
4921;SDS011;16625;53.624;10.106;2022-12-18T03:45:18;12.67;;;7.30;;
4921;SDS011;16625;53.624;10.106;2022-12-18T03:47:53;10.90;;;6.60;;
4921;SDS011;16625;53.624;10.106;2022-12-18T03:50:27;10.40;;;7.30;;
4921;SDS011;16625;53.624;10.106;2022-12-18T03:53:05;16.80;;;8.07;;
4921;SDS011;16625;53.624;10.106;2022-12-18T03:55:42;15.90;;;8.27;;
4921;SDS011;16625;53.624;10.106;2022-12-18T03:58:11;10.33;;;6.00;;
4921;SDS011;16625;53.624;10.106;2022-12-18T04:00:41;10.37;;;8.37;;
4921;SDS011;16625;53.624;10.106;2022-12-18T04:03:09;16.13;;;6.43;;
4921;SDS011;16625;53.624;10.106;2022-12-18T04:05:37;16.80;;;8.63;;
4921;SDS011;16625;53.624;10.106;2022-12-18T04:08:04;10.27;;;7.37;;
4921;SDS011;16625;53.624;10.106;2022-12-18T04:10:31;17.33;;;7.20;;
4921;SDS011;16625;53.624;10.106;2022-12-18T04:12:58;11.70;;;7.77;;
4921;SDS011;16625;53.624;10.106;2022-12-18T04:15:26;12.97;;;7.70;;
4921;SDS011;16625;53.624;10.106;2022-12-18T04:17:53;8.43;;;6.80;;
4921;SDS011;16625;53.624;10.106;2022-12-18T04:20:26;12.83;;;6.30;;
4921;SDS011;16625;53.624;10.106;2022-12-18T04:22:53;12.20;;;7.90;;
4921;SDS011;16625;53.624;10.106;2022-12-18T04:25:20;15.10;;;7.53;;
4921;SDS011;16625;53.624;10.106;2022-12-18T04:27:46;7.07;;;6.37;;
4921;SDS011;16625;53.624;10.106;2022-12-18T04:30:13;9.13;;;7.10;;
4921;SDS011;16625;53.624;10.106;2022-12-18T04:32:41;7.87;;;5.97;;
4921;SDS011;16625;53.624;10.106;2022-12-18T04:35:08;11.10;;;6.93;;
4921;SDS011;16625;53.624;10.106;2022-12-18T04:37:36;14.63;;;7.67;;
4921;SDS011;16625;53.624;10.106;2022-12-18T04:40:03;11.90;;;6.97;;
4921;SDS011;16625;53.624;10.106;2022-12-18T04:42:31;10.60;;;6.90;;
4921;SDS011;16625;53.624;10.106;2022-12-18T04:44:58;11.70;;;7.00;;
4921;SDS011;16625;53.624;10.106;2022-12-18T04:47:25;15.17;;;9.57;;
4921;SDS011;16625;53.624;10.106;2022-12-18T04:49:53;18.47;;;8.10;;
4921;SDS011;16625;53.624;10.106;2022-12-18T04:52:19;11.77;;;6.20;;
4921;SDS011;16625;53.624;10.106;2022-12-18T04:54:46;13.20;;;6.77;;
4921;SDS011;16625;53.624;10.106;2022-12-18T04:57:14;11.37;;;6.90;;
4921;SDS011;16625;53.624;10.106;2022-12-18T04:59:42;18.00;;;8.83;;
4921;SDS011;16625;53.624;10.106;2022-12-18T05:02:10;18.00;;;8.23;;
4921;SDS011;16625;53.624;10.106;2022-12-18T05:04:36;10.67;;;6.50;;
4921;SDS011;16625;53.624;10.106;2022-12-18T05:07:05;17.77;;;7.40;;
4921;SDS011;16625;53.624;10.106;2022-12-18T05:09:31;12.30;;;6.40;;
4921;SDS011;16625;53.624;10.106;2022-12-18T05:11:58;9.87;;;6.60;;
4921;SDS011;16625;53.624;10.106;2022-12-18T05:14:25;12.07;;;6.87;;
4921;SDS011;16625;53.624;10.106;2022-12-18T05:16:52;11.37;;;7.33;;
4921;SDS011;16625;53.624;10.106;2022-12-18T05:19:20;7.70;;;6.40;;
4921;SDS011;16625;53.624;10.106;2022-12-18T05:21:47;17.57;;;7.67;;
4921;SDS011;16625;53.624;10.106;2022-12-18T05:24:15;11.30;;;7.33;;
4921;SDS011;16625;53.624;10.106;2022-12-18T05:26:42;8.70;;;6.10;;
4921;SDS011;16625;53.624;10.106;2022-12-18T05:29:08;13.20;;;7.80;;
4921;SDS011;16625;53.624;10.106;2022-12-18T05:31:37;18.37;;;8.00;;
4921;SDS011;16625;53.624;10.106;2022-12-18T05:34:04;12.00;;;7.03;;
4921;SDS011;16625;53.624;10.106;2022-12-18T05:36:30;12.30;;;9.03;;
4921;SDS011;16625;53.624;10.106;2022-12-18T05:38:58;13.13;;;7.77;;
4921;SDS011;16625;53.624;10.106;2022-12-18T05:41:26;14.87;;;8.03;;
4921;SDS011;16625;53.624;10.106;2022-12-18T05:43:53;18.57;;;8.10;;
4921;SDS011;16625;53.624;10.106;2022-12-18T05:46:20;17.13;;;8.67;;
4921;SDS011;16625;53.624;10.106;2022-12-18T05:48:47;17.60;;;11.27;;
4921;SDS011;16625;53.624;10.106;2022-12-18T05:51:15;17.77;;;9.37;;
4921;SDS011;16625;53.624;10.106;2022-12-18T05:53:43;18.20;;;9.30;;
4921;SDS011;16625;53.624;10.106;2022-12-18T05:56:11;16.23;;;8.13;;
4921;SDS011;16625;53.624;10.106;2022-12-18T05:58:44;11.60;;;9.60;;
4921;SDS011;16625;53.624;10.106;2022-12-18T06:01:13;15.57;;;8.03;;
4921;SDS011;16625;53.624;10.106;2022-12-18T06:03:40;16.13;;;9.50;;
4921;SDS011;16625;53.624;10.106;2022-12-18T06:06:14;13.10;;;7.83;;
4921;SDS011;16625;53.624;10.106;2022-12-18T06:08:41;16.77;;;8.27;;
4921;SDS011;16625;53.624;10.106;2022-12-18T06:11:08;16.93;;;7.50;;
4921;SDS011;16625;53.624;10.106;2022-12-18T06:13:35;13.90;;;8.23;;
4921;SDS011;16625;53.624;10.106;2022-12-18T06:16:05;13.37;;;8.30;;
4921;SDS011;16625;53.624;10.106;2022-12-18T06:18:32;13.70;;;9.10;;
4921;SDS011;16625;53.624;10.106;2022-12-18T06:20:59;13.37;;;8.83;;
4921;SDS011;16625;53.624;10.106;2022-12-18T06:23:27;13.63;;;8.23;;
4921;SDS011;16625;53.624;10.106;2022-12-18T06:25:54;13.63;;;8.30;;
4921;SDS011;16625;53.624;10.106;2022-12-18T06:28:20;11.73;;;6.27;;
4921;SDS011;16625;53.624;10.106;2022-12-18T06:30:47;12.47;;;8.07;;
4921;SDS011;16625;53.624;10.106;2022-12-18T06:33:16;7.60;;;6.57;;
4921;SDS011;16625;53.624;10.106;2022-12-18T06:35:43;18.87;;;9.23;;
4921;SDS011;16625;53.624;10.106;2022-12-18T06:38:09;30.23;;;9.93;;
4921;SDS011;16625;53.624;10.106;2022-12-18T06:40:37;9.60;;;6.70;;
4921;SDS011;16625;53.624;10.106;2022-12-18T06:43:04;15.47;;;8.00;;
4921;SDS011;16625;53.624;10.106;2022-12-18T06:45:31;12.17;;;8.20;;
4921;SDS011;16625;53.624;10.106;2022-12-18T06:47:58;17.67;;;7.97;;
4921;SDS011;16625;53.624;10.106;2022-12-18T06:50:26;20.77;;;8.73;;
4921;SDS011;16625;53.624;10.106;2022-12-18T06:52:53;12.07;;;6.93;;
4921;SDS011;16625;53.624;10.106;2022-12-18T06:55:20;12.30;;;8.00;;
4921;SDS011;16625;53.624;10.106;2022-12-18T06:57:46;19.43;;;9.80;;
4921;SDS011;16625;53.624;10.106;2022-12-18T07:00:13;17.10;;;9.80;;
4921;SDS011;16625;53.624;10.106;2022-12-18T07:02:40;13.73;;;7.13;;
4921;SDS011;16625;53.624;10.106;2022-12-18T07:05:08;10.87;;;8.10;;
4921;SDS011;16625;53.624;10.106;2022-12-18T07:07:36;11.50;;;7.50;;
4921;SDS011;16625;53.624;10.106;2022-12-18T07:10:03;13.90;;;8.57;;
4921;SDS011;16625;53.624;10.106;2022-12-18T07:12:30;13.10;;;7.63;;
4921;SDS011;16625;53.624;10.106;2022-12-18T07:14:57;13.53;;;8.77;;
4921;SDS011;16625;53.624;10.106;2022-12-18T07:17:24;14.20;;;7.70;;
4921;SDS011;16625;53.624;10.106;2022-12-18T07:19:50;11.53;;;7.37;;
4921;SDS011;16625;53.624;10.106;2022-12-18T07:22:17;13.37;;;7.90;;
4921;SDS011;16625;53.624;10.106;2022-12-18T07:24:45;9.17;;;8.03;;
4921;SDS011;16625;53.624;10.106;2022-12-18T07:27:12;12.60;;;8.47;;
4921;SDS011;16625;53.624;10.106;2022-12-18T07:29:39;11.70;;;7.67;;
4921;SDS011;16625;53.624;10.106;2022-12-18T07:32:06;12.30;;;7.50;;
4921;SDS011;16625;53.624;10.106;2022-12-18T07:34:33;13.27;;;7.70;;
4921;SDS011;16625;53.624;10.106;2022-12-18T07:37:00;10.80;;;7.20;;
4921;SDS011;16625;53.624;10.106;2022-12-18T07:39:27;12.23;;;7.70;;
4921;SDS011;16625;53.624;10.106;2022-12-18T07:41:55;13.00;;;9.43;;
4921;SDS011;16625;53.624;10.106;2022-12-18T07:44:39;21.30;;;8.93;;
4921;SDS011;16625;53.624;10.106;2022-12-18T07:47:06;10.80;;;8.30;;
4921;SDS011;16625;53.624;10.106;2022-12-18T07:49:32;13.83;;;9.83;;
4921;SDS011;16625;53.624;10.106;2022-12-18T07:51:59;11.43;;;7.13;;
4921;SDS011;16625;53.624;10.106;2022-12-18T07:54:26;18.53;;;8.83;;
4921;SDS011;16625;53.624;10.106;2022-12-18T07:56:55;15.27;;;11.07;;
4921;SDS011;16625;53.624;10.106;2022-12-18T07:59:27;16.20;;;9.47;;
4921;SDS011;16625;53.624;10.106;2022-12-18T08:01:54;13.53;;;8.53;;
4921;SDS011;16625;53.624;10.106;2022-12-18T08:04:21;15.90;;;8.77;;
4921;SDS011;16625;53.624;10.106;2022-12-18T08:06:48;10.00;;;7.17;;
4921;SDS011;16625;53.624;10.106;2022-12-18T08:09:14;18.83;;;8.60;;
4921;SDS011;16625;53.624;10.106;2022-12-18T08:11:41;12.93;;;7.90;;
4921;SDS011;16625;53.624;10.106;2022-12-18T08:14:10;5.83;;;4.67;;
4921;SDS011;16625;53.624;10.106;2022-12-18T08:16:37;14.60;;;8.37;;
4921;SDS011;16625;53.624;10.106;2022-12-18T08:19:03;13.03;;;8.03;;
4921;SDS011;16625;53.624;10.106;2022-12-18T08:21:30;14.83;;;7.60;;
4921;SDS011;16625;53.624;10.106;2022-12-18T08:23:58;16.60;;;9.90;;
4921;SDS011;16625;53.624;10.106;2022-12-18T08:26:26;15.60;;;9.60;;
4921;SDS011;16625;53.624;10.106;2022-12-18T08:28:55;15.67;;;9.93;;
4921;SDS011;16625;53.624;10.106;2022-12-18T08:31:24;16.60;;;11.10;;
4921;SDS011;16625;53.624;10.106;2022-12-18T08:33:52;14.50;;;9.83;;
4921;SDS011;16625;53.624;10.106;2022-12-18T08:36:19;14.13;;;8.33;;
4921;SDS011;16625;53.624;10.106;2022-12-18T08:38:47;19.70;;;10.20;;
4921;SDS011;16625;53.624;10.106;2022-12-18T08:41:14;12.30;;;8.93;;
4921;SDS011;16625;53.624;10.106;2022-12-18T08:43:43;16.87;;;10.47;;
4921;SDS011;16625;53.624;10.106;2022-12-18T08:46:31;19.40;;;10.87;;
4921;SDS011;16625;53.624;10.106;2022-12-18T08:48:59;14.37;;;9.33;;
4921;SDS011;16625;53.624;10.106;2022-12-18T08:51:26;17.73;;;9.70;;
4921;SDS011;16625;53.624;10.106;2022-12-18T08:53:53;16.97;;;9.67;;
4921;SDS011;16625;53.624;10.106;2022-12-18T08:56:20;19.77;;;10.00;;
4921;SDS011;16625;53.624;10.106;2022-12-18T08:58:47;19.80;;;8.67;;
4921;SDS011;16625;53.624;10.106;2022-12-18T09:01:13;13.20;;;9.20;;
4921;SDS011;16625;53.624;10.106;2022-12-18T09:03:42;22.30;;;8.97;;
4921;SDS011;16625;53.624;10.106;2022-12-18T09:06:09;13.40;;;11.03;;
4921;SDS011;16625;53.624;10.106;2022-12-18T09:08:40;22.00;;;9.67;;
4921;SDS011;16625;53.624;10.106;2022-12-18T09:11:09;15.57;;;9.43;;
4921;SDS011;16625;53.624;10.106;2022-12-18T09:13:39;17.80;;;9.30;;
4921;SDS011;16625;53.624;10.106;2022-12-18T09:16:06;20.50;;;10.57;;
4921;SDS011;16625;53.624;10.106;2022-12-18T09:18:33;19.70;;;11.13;;
4921;SDS011;16625;53.624;10.106;2022-12-18T09:21:06;19.53;;;11.20;;
4921;SDS011;16625;53.624;10.106;2022-12-18T09:23:34;16.57;;;10.97;;
4921;SDS011;16625;53.624;10.106;2022-12-18T09:26:01;17.47;;;10.93;;
4921;SDS011;16625;53.624;10.106;2022-12-18T09:28:28;16.27;;;10.73;;
4921;SDS011;16625;53.624;10.106;2022-12-18T09:30:55;28.23;;;9.50;;
4921;SDS011;16625;53.624;10.106;2022-12-18T09:33:21;23.20;;;10.03;;
4921;SDS011;16625;53.624;10.106;2022-12-18T09:35:48;16.70;;;9.93;;
4921;SDS011;16625;53.624;10.106;2022-12-18T09:38:18;18.03;;;11.33;;
4921;SDS011;16625;53.624;10.106;2022-12-18T09:40:46;20.43;;;9.80;;
4921;SDS011;16625;53.624;10.106;2022-12-18T09:43:16;20.80;;;9.70;;
4921;SDS011;16625;53.624;10.106;2022-12-18T09:45:46;18.03;;;10.27;;
4921;SDS011;16625;53.624;10.106;2022-12-18T09:48:18;30.60;;;9.90;;
4921;SDS011;16625;53.624;10.106;2022-12-18T09:50:48;18.80;;;10.67;;
4921;SDS011;16625;53.624;10.106;2022-12-18T09:53:19;13.53;;;9.60;;
4921;SDS011;16625;53.624;10.106;2022-12-18T09:55:51;23.87;;;10.77;;
4921;SDS011;16625;53.624;10.106;2022-12-18T09:58:24;16.90;;;9.30;;
4921;SDS011;16625;53.624;10.106;2022-12-18T10:00:54;22.80;;;10.97;;
4921;SDS011;16625;53.624;10.106;2022-12-18T10:03:21;18.33;;;9.43;;
4921;SDS011;16625;53.624;10.106;2022-12-18T10:05:51;21.10;;;12.10;;
4921;SDS011;16625;53.624;10.106;2022-12-18T10:08:28;11.20;;;6.53;;
4921;SDS011;16625;53.624;10.106;2022-12-18T10:11:11;22.93;;;11.33;;
4921;SDS011;16625;53.624;10.106;2022-12-18T10:13:54;15.90;;;10.03;;
4921;SDS011;16625;53.624;10.106;2022-12-18T10:16:27;16.27;;;9.30;;
4921;SDS011;16625;53.624;10.106;2022-12-18T10:19:17;18.70;;;10.23;;
4921;SDS011;16625;53.624;10.106;2022-12-18T10:21:57;15.60;;;9.00;;
4921;SDS011;16625;53.624;10.106;2022-12-18T10:24:32;22.67;;;10.77;;
4921;SDS011;16625;53.624;10.106;2022-12-18T10:27:08;27.83;;;9.77;;
4921;SDS011;16625;53.624;10.106;2022-12-18T10:29:40;13.40;;;8.93;;
4921;SDS011;16625;53.624;10.106;2022-12-18T10:32:09;19.77;;;9.80;;
4921;SDS011;16625;53.624;10.106;2022-12-18T10:34:44;21.93;;;11.43;;
4921;SDS011;16625;53.624;10.106;2022-12-18T10:37:12;14.80;;;8.87;;
4921;SDS011;16625;53.624;10.106;2022-12-18T10:39:44;13.90;;;8.60;;
4921;SDS011;16625;53.624;10.106;2022-12-18T10:45:00;17.90;;;9.30;;
4921;SDS011;16625;53.624;10.106;2022-12-18T10:47:29;17.20;;;9.33;;
4921;SDS011;16625;53.624;10.106;2022-12-18T10:49:56;14.27;;;9.10;;
4921;SDS011;16625;53.624;10.106;2022-12-18T10:52:25;23.83;;;10.40;;
4921;SDS011;16625;53.624;10.106;2022-12-18T10:54:55;17.50;;;8.57;;
4921;SDS011;16625;53.624;10.106;2022-12-18T10:57:31;14.80;;;9.13;;
4921;SDS011;16625;53.624;10.106;2022-12-18T11:00:03;20.80;;;9.60;;
4921;SDS011;16625;53.624;10.106;2022-12-18T11:02:49;14.63;;;9.63;;
4921;SDS011;16625;53.624;10.106;2022-12-18T11:05:23;17.90;;;9.87;;
4921;SDS011;16625;53.624;10.106;2022-12-18T11:07:51;18.83;;;8.37;;
4921;SDS011;16625;53.624;10.106;2022-12-18T11:10:21;16.00;;;9.07;;
4921;SDS011;16625;53.624;10.106;2022-12-18T11:12:51;14.33;;;7.97;;
4921;SDS011;16625;53.624;10.106;2022-12-18T11:15:19;12.60;;;7.50;;
4921;SDS011;16625;53.624;10.106;2022-12-18T11:17:48;12.97;;;9.60;;
4921;SDS011;16625;53.624;10.106;2022-12-18T11:20:21;18.50;;;7.33;;
4921;SDS011;16625;53.624;10.106;2022-12-18T11:22:54;13.73;;;8.00;;
4921;SDS011;16625;53.624;10.106;2022-12-18T11:25:24;15.63;;;7.57;;
4921;SDS011;16625;53.624;10.106;2022-12-18T11:27:52;16.40;;;8.10;;
4921;SDS011;16625;53.624;10.106;2022-12-18T11:30:22;11.20;;;7.33;;
4921;SDS011;16625;53.624;10.106;2022-12-18T11:32:52;14.20;;;8.60;;
4921;SDS011;16625;53.624;10.106;2022-12-18T11:35:30;15.67;;;8.43;;
4921;SDS011;16625;53.624;10.106;2022-12-18T11:38:07;19.90;;;9.00;;
4921;SDS011;16625;53.624;10.106;2022-12-18T11:40:43;14.03;;;7.90;;
4921;SDS011;16625;53.624;10.106;2022-12-18T11:43:14;16.03;;;8.17;;
4921;SDS011;16625;53.624;10.106;2022-12-18T11:45:45;18.10;;;7.30;;
4921;SDS011;16625;53.624;10.106;2022-12-18T11:48:18;15.27;;;9.30;;
4921;SDS011;16625;53.624;10.106;2022-12-18T11:50:50;16.53;;;8.07;;
4921;SDS011;16625;53.624;10.106;2022-12-18T11:53:19;13.20;;;9.03;;
4921;SDS011;16625;53.624;10.106;2022-12-18T11:55:53;16.40;;;9.03;;
4921;SDS011;16625;53.624;10.106;2022-12-18T11:58:30;13.60;;;8.80;;
4921;SDS011;16625;53.624;10.106;2022-12-18T12:01:15;21.70;;;11.60;;
4921;SDS011;16625;53.624;10.106;2022-12-18T12:03:57;19.93;;;10.20;;
4921;SDS011;16625;53.624;10.106;2022-12-18T12:06:36;13.30;;;8.10;;
4921;SDS011;16625;53.624;10.106;2022-12-18T12:09:11;18.17;;;9.50;;
4921;SDS011;16625;53.624;10.106;2022-12-18T12:11:50;16.63;;;8.50;;
4921;SDS011;16625;53.624;10.106;2022-12-18T12:14:28;16.70;;;9.20;;
4921;SDS011;16625;53.624;10.106;2022-12-18T12:17:05;18.43;;;9.53;;
4921;SDS011;16625;53.624;10.106;2022-12-18T12:22:58;16.73;;;9.77;;
4921;SDS011;16625;53.624;10.106;2022-12-18T12:25:33;14.40;;;10.60;;
4921;SDS011;16625;53.624;10.106;2022-12-18T12:28:13;16.07;;;10.50;;
4921;SDS011;16625;53.624;10.106;2022-12-18T12:30:53;15.30;;;8.90;;
4921;SDS011;16625;53.624;10.106;2022-12-18T12:33:28;21.90;;;10.90;;
4921;SDS011;16625;53.624;10.106;2022-12-18T12:36:08;17.40;;;9.53;;
4921;SDS011;16625;53.624;10.106;2022-12-18T12:38:43;19.87;;;10.00;;
4921;SDS011;16625;53.624;10.106;2022-12-18T12:41:16;18.37;;;9.57;;
4921;SDS011;16625;53.624;10.106;2022-12-18T12:44:01;19.27;;;11.40;;
4921;SDS011;16625;53.624;10.106;2022-12-18T12:46:32;18.67;;;10.30;;
4921;SDS011;16625;53.624;10.106;2022-12-18T12:49:03;19.80;;;10.60;;
4921;SDS011;16625;53.624;10.106;2022-12-18T12:51:36;20.37;;;10.77;;
4921;SDS011;16625;53.624;10.106;2022-12-18T12:54:08;19.50;;;10.03;;
4921;SDS011;16625;53.624;10.106;2022-12-18T12:56:40;20.50;;;10.70;;
4921;SDS011;16625;53.624;10.106;2022-12-18T12:59:18;21.10;;;10.77;;
4921;SDS011;16625;53.624;10.106;2022-12-18T13:01:49;15.07;;;10.00;;
4921;SDS011;16625;53.624;10.106;2022-12-18T13:04:24;23.70;;;10.57;;
4921;SDS011;16625;53.624;10.106;2022-12-18T13:06:58;22.23;;;9.70;;
4921;SDS011;16625;53.624;10.106;2022-12-18T13:09:30;27.20;;;12.37;;
4921;SDS011;16625;53.624;10.106;2022-12-18T13:12:01;18.60;;;9.93;;
4921;SDS011;16625;53.624;10.106;2022-12-18T13:14:48;22.50;;;9.70;;
4921;SDS011;16625;53.624;10.106;2022-12-18T13:20:04;20.97;;;9.37;;
4921;SDS011;16625;53.624;10.106;2022-12-18T13:22:36;20.83;;;11.80;;
4921;SDS011;16625;53.624;10.106;2022-12-18T13:27:59;20.30;;;9.87;;
4921;SDS011;16625;53.624;10.106;2022-12-18T13:30:46;24.47;;;11.10;;
4921;SDS011;16625;53.624;10.106;2022-12-18T13:33:30;23.50;;;11.53;;
4921;SDS011;16625;53.624;10.106;2022-12-18T13:36:14;25.03;;;11.20;;
4921;SDS011;16625;53.624;10.106;2022-12-18T13:39:09;26.50;;;11.83;;
4921;SDS011;16625;53.624;10.106;2022-12-18T13:41:52;22.30;;;9.43;;
4921;SDS011;16625;53.624;10.106;2022-12-18T13:44:23;20.63;;;10.40;;
4921;SDS011;16625;53.624;10.106;2022-12-18T13:46:55;23.50;;;10.73;;
4921;SDS011;16625;53.624;10.106;2022-12-18T13:49:23;26.83;;;12.07;;
4921;SDS011;16625;53.624;10.106;2022-12-18T13:51:52;26.20;;;9.97;;
4921;SDS011;16625;53.624;10.106;2022-12-18T13:54:22;20.30;;;11.80;;
4921;SDS011;16625;53.624;10.106;2022-12-18T13:56:54;22.40;;;10.23;;
4921;SDS011;16625;53.624;10.106;2022-12-18T13:59:21;19.30;;;11.40;;
4921;SDS011;16625;53.624;10.106;2022-12-18T14:01:51;20.27;;;9.87;;
4921;SDS011;16625;53.624;10.106;2022-12-18T14:04:23;20.80;;;10.37;;
4921;SDS011;16625;53.624;10.106;2022-12-18T14:06:55;22.77;;;11.53;;
4921;SDS011;16625;53.624;10.106;2022-12-18T14:09:30;25.17;;;12.33;;
4921;SDS011;16625;53.624;10.106;2022-12-18T14:12:00;21.83;;;11.17;;
4921;SDS011;16625;53.624;10.106;2022-12-18T14:14:46;26.33;;;10.50;;
4921;SDS011;16625;53.624;10.106;2022-12-18T14:17:15;19.73;;;10.47;;
4921;SDS011;16625;53.624;10.106;2022-12-18T14:19:45;30.80;;;11.07;;
4921;SDS011;16625;53.624;10.106;2022-12-18T14:22:15;22.60;;;9.97;;
4921;SDS011;16625;53.624;10.106;2022-12-18T14:24:44;25.07;;;11.37;;
4921;SDS011;16625;53.624;10.106;2022-12-18T14:27:13;20.10;;;10.47;;
4921;SDS011;16625;53.624;10.106;2022-12-18T14:29:47;20.10;;;12.83;;
4921;SDS011;16625;53.624;10.106;2022-12-18T14:32:14;22.77;;;11.97;;
4921;SDS011;16625;53.624;10.106;2022-12-18T14:34:42;21.73;;;11.00;;
4921;SDS011;16625;53.624;10.106;2022-12-18T14:37:10;21.47;;;11.70;;
4921;SDS011;16625;53.624;10.106;2022-12-18T14:39:39;26.43;;;11.13;;
4921;SDS011;16625;53.624;10.106;2022-12-18T14:42:09;26.43;;;13.67;;
4921;SDS011;16625;53.624;10.106;2022-12-18T14:44:36;27.90;;;12.93;;
4921;SDS011;16625;53.624;10.106;2022-12-18T14:47:03;26.53;;;10.07;;
4921;SDS011;16625;53.624;10.106;2022-12-18T14:49:30;29.60;;;13.60;;
4921;SDS011;16625;53.624;10.106;2022-12-18T14:51:58;27.27;;;11.90;;
4921;SDS011;16625;53.624;10.106;2022-12-18T14:54:29;30.77;;;13.90;;
4921;SDS011;16625;53.624;10.106;2022-12-18T14:56:59;32.43;;;9.57;;
4921;SDS011;16625;53.624;10.106;2022-12-18T14:59:27;32.13;;;15.33;;
4921;SDS011;16625;53.624;10.106;2022-12-18T15:02:00;29.10;;;14.73;;